sensor_id;sensor_type;location;lat;lon;timestamp;P1;durP1;ratioP1;P2;durP2;ratioP2
10719;SDS011;5411;58.386;15.560;2023-11-18T00:01:59;9.83;;;5.67;;
10719;SDS011;5411;58.386;15.560;2023-11-18T00:04:27;9.60;;;5.57;;
10719;SDS011;5411;58.386;15.560;2023-11-18T00:06:56;9.57;;;6.20;;
10719;SDS011;5411;58.386;15.560;2023-11-18T00:09:26;8.93;;;5.80;;
10719;SDS011;5411;58.386;15.560;2023-11-18T00:11:54;10.80;;;6.00;;
10719;SDS011;5411;58.386;15.560;2023-11-18T00:14:23;10.77;;;5.50;;
10719;SDS011;5411;58.386;15.560;2023-11-18T00:16:52;9.17;;;5.10;;
10719;SDS011;5411;58.386;15.560;2023-11-18T00:19:23;11.20;;;6.00;;
10719;SDS011;5411;58.386;15.560;2023-11-18T00:21:51;9.87;;;5.93;;
10719;SDS011;5411;58.386;15.560;2023-11-18T00:24:22;13.30;;;6.53;;
10719;SDS011;5411;58.386;15.560;2023-11-18T00:26:50;14.87;;;6.13;;
10719;SDS011;5411;58.386;15.560;2023-11-18T00:29:18;12.03;;;6.17;;
10719;SDS011;5411;58.386;15.560;2023-11-18T00:31:47;8.37;;;5.80;;
10719;SDS011;5411;58.386;15.560;2023-11-18T00:34:17;11.57;;;6.37;;
10719;SDS011;5411;58.386;15.560;2023-11-18T00:36:45;30.27;;;6.63;;
10719;SDS011;5411;58.386;15.560;2023-11-18T00:39:13;92.10;;;9.20;;
10719;SDS011;5411;58.386;15.560;2023-11-18T00:41:43;138.37;;;11.27;;
10719;SDS011;5411;58.386;15.560;2023-11-18T00:44:12;44.53;;;7.47;;
10719;SDS011;5411;58.386;15.560;2023-11-18T00:46:41;56.97;;;7.63;;
10719;SDS011;5411;58.386;15.560;2023-11-18T00:49:09;45.30;;;8.67;;
10719;SDS011;5411;58.386;15.560;2023-11-18T00:51:47;71.23;;;8.83;;
10719;SDS011;5411;58.386;15.560;2023-11-18T00:54:15;57.03;;;9.23;;
10719;SDS011;5411;58.386;15.560;2023-11-18T00:56:46;75.10;;;12.97;;
10719;SDS011;5411;58.386;15.560;2023-11-18T01:01:57;105.67;;;11.03;;
10719;SDS011;5411;58.386;15.560;2023-11-18T01:04:25;83.17;;;8.80;;
10719;SDS011;5411;58.386;15.560;2023-11-18T01:06:55;119.03;;;11.87;;
10719;SDS011;5411;58.386;15.560;2023-11-18T01:09:24;129.47;;;11.73;;
10719;SDS011;5411;58.386;15.560;2023-11-18T01:11:54;72.53;;;8.50;;
10719;SDS011;5411;58.386;15.560;2023-11-18T01:14:34;111.73;;;8.97;;
10719;SDS011;5411;58.386;15.560;2023-11-18T01:17:05;100.27;;;9.40;;
10719;SDS011;5411;58.386;15.560;2023-11-18T01:19:33;62.37;;;7.60;;
10719;SDS011;5411;58.386;15.560;2023-11-18T01:22:03;40.83;;;6.63;;
10719;SDS011;5411;58.386;15.560;2023-11-18T01:24:32;68.80;;;8.00;;
10719;SDS011;5411;58.386;15.560;2023-11-18T01:27:01;47.07;;;6.47;;
10719;SDS011;5411;58.386;15.560;2023-11-18T01:29:30;28.67;;;5.87;;
10719;SDS011;5411;58.386;15.560;2023-11-18T01:31:59;32.83;;;5.73;;
10719;SDS011;5411;58.386;15.560;2023-11-18T01:34:35;43.40;;;7.13;;
10719;SDS011;5411;58.386;15.560;2023-11-18T01:37:07;37.23;;;6.77;;
10719;SDS011;5411;58.386;15.560;2023-11-18T01:39:38;64.30;;;7.30;;
10719;SDS011;5411;58.386;15.560;2023-11-18T01:42:07;35.77;;;6.60;;
10719;SDS011;5411;58.386;15.560;2023-11-18T01:44:40;82.47;;;8.07;;
10719;SDS011;5411;58.386;15.560;2023-11-18T01:47:09;56.73;;;6.80;;
10719;SDS011;5411;58.386;15.560;2023-11-18T01:49:39;74.23;;;8.60;;
10719;SDS011;5411;58.386;15.560;2023-11-18T01:52:11;32.30;;;5.50;;
10719;SDS011;5411;58.386;15.560;2023-11-18T01:54:40;40.43;;;5.93;;
10719;SDS011;5411;58.386;15.560;2023-11-18T01:57:13;31.23;;;5.90;;
10719;SDS011;5411;58.386;15.560;2023-11-18T01:59:42;30.03;;;5.90;;
10719;SDS011;5411;58.386;15.560;2023-11-18T02:02:10;45.90;;;7.17;;
10719;SDS011;5411;58.386;15.560;2023-11-18T02:04:44;42.37;;;5.30;;
10719;SDS011;5411;58.386;15.560;2023-11-18T02:07:17;37.10;;;5.00;;
10719;SDS011;5411;58.386;15.560;2023-11-18T02:09:47;19.27;;;5.13;;
10719;SDS011;5411;58.386;15.560;2023-11-18T02:12:18;21.40;;;5.67;;
10719;SDS011;5411;58.386;15.560;2023-11-18T02:14:49;28.13;;;6.50;;
10719;SDS011;5411;58.386;15.560;2023-11-18T02:17:21;16.53;;;5.47;;
10719;SDS011;5411;58.386;15.560;2023-11-18T02:19:51;20.13;;;4.97;;
10719;SDS011;5411;58.386;15.560;2023-11-18T02:22:22;32.97;;;6.17;;
10719;SDS011;5411;58.386;15.560;2023-11-18T02:24:51;31.53;;;5.80;;
10719;SDS011;5411;58.386;15.560;2023-11-18T02:27:21;39.13;;;6.50;;
10719;SDS011;5411;58.386;15.560;2023-11-18T02:29:51;35.43;;;6.30;;
10719;SDS011;5411;58.386;15.560;2023-11-18T02:32:20;70.07;;;10.30;;
10719;SDS011;5411;58.386;15.560;2023-11-18T02:34:58;30.53;;;5.93;;
10719;SDS011;5411;58.386;15.560;2023-11-18T02:37:37;39.17;;;7.30;;
10719;SDS011;5411;58.386;15.560;2023-11-18T02:40:09;42.50;;;6.90;;
10719;SDS011;5411;58.386;15.560;2023-11-18T02:42:44;64.43;;;6.83;;
10719;SDS011;5411;58.386;15.560;2023-11-18T02:45:14;32.93;;;6.13;;
10719;SDS011;5411;58.386;15.560;2023-11-18T02:47:44;38.80;;;7.50;;
10719;SDS011;5411;58.386;15.560;2023-11-18T02:50:13;28.80;;;6.47;;
10719;SDS011;5411;58.386;15.560;2023-11-18T02:52:45;28.23;;;5.97;;
10719;SDS011;5411;58.386;15.560;2023-11-18T02:55:15;28.87;;;5.87;;
10719;SDS011;5411;58.386;15.560;2023-11-18T02:57:45;20.70;;;6.00;;
10719;SDS011;5411;58.386;15.560;2023-11-18T03:00:14;16.67;;;5.80;;
10719;SDS011;5411;58.386;15.560;2023-11-18T03:02:45;35.97;;;6.60;;
10719;SDS011;5411;58.386;15.560;2023-11-18T03:05:14;38.27;;;6.50;;
10719;SDS011;5411;58.386;15.560;2023-11-18T03:07:43;20.00;;;5.67;;
10719;SDS011;5411;58.386;15.560;2023-11-18T03:13:03;32.80;;;6.40;;
10719;SDS011;5411;58.386;15.560;2023-11-18T03:15:31;29.00;;;6.70;;
10719;SDS011;5411;58.386;15.560;2023-11-18T03:17:59;15.57;;;6.20;;
10719;SDS011;5411;58.386;15.560;2023-11-18T03:20:28;23.40;;;6.40;;
10719;SDS011;5411;58.386;15.560;2023-11-18T03:22:58;15.90;;;7.10;;
10719;SDS011;5411;58.386;15.560;2023-11-18T03:25:28;28.87;;;7.63;;
10719;SDS011;5411;58.386;15.560;2023-11-18T03:27:58;30.10;;;6.90;;
10719;SDS011;5411;58.386;15.560;2023-11-18T03:30:30;20.27;;;7.13;;
10719;SDS011;5411;58.386;15.560;2023-11-18T03:32:58;13.23;;;7.10;;
10719;SDS011;5411;58.386;15.560;2023-11-18T03:35:27;8.43;;;5.50;;
10719;SDS011;5411;58.386;15.560;2023-11-18T03:37:56;8.27;;;5.53;;
10719;SDS011;5411;58.386;15.560;2023-11-18T03:40:24;8.20;;;5.40;;
10719;SDS011;5411;58.386;15.560;2023-11-18T03:42:55;7.83;;;5.93;;
10719;SDS011;5411;58.386;15.560;2023-11-18T03:45:25;7.07;;;5.20;;
10719;SDS011;5411;58.386;15.560;2023-11-18T03:47:55;12.03;;;6.00;;
10719;SDS011;5411;58.386;15.560;2023-11-18T03:50:23;9.70;;;5.83;;
10719;SDS011;5411;58.386;15.560;2023-11-18T03:52:51;6.90;;;5.20;;
10719;SDS011;5411;58.386;15.560;2023-11-18T03:55:20;7.70;;;5.20;;
10719;SDS011;5411;58.386;15.560;2023-11-18T03:57:48;8.07;;;5.10;;
10719;SDS011;5411;58.386;15.560;2023-11-18T04:00:16;8.90;;;5.60;;
10719;SDS011;5411;58.386;15.560;2023-11-18T04:02:46;7.43;;;5.17;;
10719;SDS011;5411;58.386;15.560;2023-11-18T04:05:16;7.80;;;5.37;;
10719;SDS011;5411;58.386;15.560;2023-11-18T04:07:44;7.87;;;5.40;;
10719;SDS011;5411;58.386;15.560;2023-11-18T04:10:12;6.63;;;5.10;;
10719;SDS011;5411;58.386;15.560;2023-11-18T04:12:41;7.43;;;5.07;;
10719;SDS011;5411;58.386;15.560;2023-11-18T04:15:13;6.97;;;4.93;;
10719;SDS011;5411;58.386;15.560;2023-11-18T04:17:41;7.60;;;5.37;;
10719;SDS011;5411;58.386;15.560;2023-11-18T04:20:12;6.50;;;5.37;;
10719;SDS011;5411;58.386;15.560;2023-11-18T04:22:44;8.10;;;5.17;;
10719;SDS011;5411;58.386;15.560;2023-11-18T04:25:13;9.07;;;5.63;;
10719;SDS011;5411;58.386;15.560;2023-11-18T04:27:41;9.27;;;5.40;;
10719;SDS011;5411;58.386;15.560;2023-11-18T04:30:12;7.67;;;5.47;;
10719;SDS011;5411;58.386;15.560;2023-11-18T04:32:43;6.80;;;5.40;;
10719;SDS011;5411;58.386;15.560;2023-11-18T04:35:11;7.87;;;5.43;;
10719;SDS011;5411;58.386;15.560;2023-11-18T04:37:40;7.90;;;5.40;;
10719;SDS011;5411;58.386;15.560;2023-11-18T04:40:12;7.57;;;4.87;;
10719;SDS011;5411;58.386;15.560;2023-11-18T04:42:40;7.10;;;5.40;;
10719;SDS011;5411;58.386;15.560;2023-11-18T04:45:10;6.33;;;4.87;;
10719;SDS011;5411;58.386;15.560;2023-11-18T04:47:41;8.27;;;5.53;;
10719;SDS011;5411;58.386;15.560;2023-11-18T04:50:13;7.03;;;4.90;;
10719;SDS011;5411;58.386;15.560;2023-11-18T04:52:42;6.63;;;5.07;;
10719;SDS011;5411;58.386;15.560;2023-11-18T04:55:11;7.17;;;5.37;;
10719;SDS011;5411;58.386;15.560;2023-11-18T04:57:40;5.47;;;4.47;;
10719;SDS011;5411;58.386;15.560;2023-11-18T05:00:10;6.37;;;4.80;;
10719;SDS011;5411;58.386;15.560;2023-11-18T05:02:48;6.97;;;5.00;;
10719;SDS011;5411;58.386;15.560;2023-11-18T05:05:22;5.80;;;4.70;;
10719;SDS011;5411;58.386;15.560;2023-11-18T05:07:50;5.43;;;4.30;;
10719;SDS011;5411;58.386;15.560;2023-11-18T05:10:20;6.40;;;4.67;;
10719;SDS011;5411;58.386;15.560;2023-11-18T05:12:49;5.07;;;4.20;;
10719;SDS011;5411;58.386;15.560;2023-11-18T05:15:22;5.13;;;4.43;;
10719;SDS011;5411;58.386;15.560;2023-11-18T05:17:52;7.07;;;4.53;;
10719;SDS011;5411;58.386;15.560;2023-11-18T05:20:21;6.07;;;4.37;;
10719;SDS011;5411;58.386;15.560;2023-11-18T05:22:49;6.60;;;4.70;;
10719;SDS011;5411;58.386;15.560;2023-11-18T05:25:17;6.33;;;4.80;;
10719;SDS011;5411;58.386;15.560;2023-11-18T05:27:48;7.07;;;4.70;;
10719;SDS011;5411;58.386;15.560;2023-11-18T05:30:16;7.93;;;5.10;;
10719;SDS011;5411;58.386;15.560;2023-11-18T05:32:48;4.80;;;3.90;;
10719;SDS011;5411;58.386;15.560;2023-11-18T05:35:16;6.73;;;4.70;;
10719;SDS011;5411;58.386;15.560;2023-11-18T05:37:45;6.30;;;4.33;;
10719;SDS011;5411;58.386;15.560;2023-11-18T05:40:14;6.03;;;4.67;;
10719;SDS011;5411;58.386;15.560;2023-11-18T05:42:45;6.37;;;4.33;;
10719;SDS011;5411;58.386;15.560;2023-11-18T05:45:16;5.90;;;4.37;;
10719;SDS011;5411;58.386;15.560;2023-11-18T05:47:56;6.43;;;4.97;;
10719;SDS011;5411;58.386;15.560;2023-11-18T05:50:26;6.67;;;4.97;;
10719;SDS011;5411;58.386;15.560;2023-11-18T05:52:54;5.57;;;4.37;;
10719;SDS011;5411;58.386;15.560;2023-11-18T05:55:23;6.03;;;4.60;;
10719;SDS011;5411;58.386;15.560;2023-11-18T05:57:52;6.00;;;5.00;;
10719;SDS011;5411;58.386;15.560;2023-11-18T06:00:25;6.30;;;4.63;;
10719;SDS011;5411;58.386;15.560;2023-11-18T06:03:01;5.20;;;4.13;;
10719;SDS011;5411;58.386;15.560;2023-11-18T06:05:29;6.43;;;4.57;;
10719;SDS011;5411;58.386;15.560;2023-11-18T06:08:01;5.97;;;4.43;;
10719;SDS011;5411;58.386;15.560;2023-11-18T06:10:31;6.27;;;4.40;;
10719;SDS011;5411;58.386;15.560;2023-11-18T06:13:01;6.67;;;4.63;;
10719;SDS011;5411;58.386;15.560;2023-11-18T06:15:30;9.00;;;5.27;;
10719;SDS011;5411;58.386;15.560;2023-11-18T06:17:59;6.27;;;4.50;;
10719;SDS011;5411;58.386;15.560;2023-11-18T06:20:27;6.33;;;4.63;;
10719;SDS011;5411;58.386;15.560;2023-11-18T06:22:56;6.67;;;4.97;;
10719;SDS011;5411;58.386;15.560;2023-11-18T06:25:24;7.10;;;4.87;;
10719;SDS011;5411;58.386;15.560;2023-11-18T06:27:55;6.10;;;4.90;;
10719;SDS011;5411;58.386;15.560;2023-11-18T06:30:26;6.47;;;4.77;;
10719;SDS011;5411;58.386;15.560;2023-11-18T06:32:54;8.80;;;5.10;;
10719;SDS011;5411;58.386;15.560;2023-11-18T06:35:25;8.90;;;4.90;;
10719;SDS011;5411;58.386;15.560;2023-11-18T06:37:54;7.40;;;4.70;;
10719;SDS011;5411;58.386;15.560;2023-11-18T06:40:22;6.93;;;5.00;;
10719;SDS011;5411;58.386;15.560;2023-11-18T06:42:53;5.43;;;4.40;;
10719;SDS011;5411;58.386;15.560;2023-11-18T06:45:29;7.17;;;4.57;;
10719;SDS011;5411;58.386;15.560;2023-11-18T06:47:58;8.80;;;4.80;;
10719;SDS011;5411;58.386;15.560;2023-11-18T06:50:27;8.67;;;5.33;;
10719;SDS011;5411;58.386;15.560;2023-11-18T06:52:58;5.37;;;4.40;;
10719;SDS011;5411;58.386;15.560;2023-11-18T06:55:26;7.63;;;4.97;;
10719;SDS011;5411;58.386;15.560;2023-11-18T06:57:55;9.13;;;5.70;;
10719;SDS011;5411;58.386;15.560;2023-11-18T07:00:24;5.73;;;4.47;;
10719;SDS011;5411;58.386;15.560;2023-11-18T07:02:56;5.57;;;3.93;;
10719;SDS011;5411;58.386;15.560;2023-11-18T07:05:25;6.23;;;4.27;;
10719;SDS011;5411;58.386;15.560;2023-11-18T07:07:53;6.43;;;4.47;;
10719;SDS011;5411;58.386;15.560;2023-11-18T07:10:21;6.13;;;4.77;;
10719;SDS011;5411;58.386;15.560;2023-11-18T07:12:50;6.87;;;4.70;;
10719;SDS011;5411;58.386;15.560;2023-11-18T07:15:18;6.53;;;4.60;;
10719;SDS011;5411;58.386;15.560;2023-11-18T07:17:47;5.87;;;4.77;;
10719;SDS011;5411;58.386;15.560;2023-11-18T07:20:17;7.57;;;4.60;;
10719;SDS011;5411;58.386;15.560;2023-11-18T07:22:46;5.57;;;4.23;;
10719;SDS011;5411;58.386;15.560;2023-11-18T07:25:14;6.33;;;4.50;;
10719;SDS011;5411;58.386;15.560;2023-11-18T07:27:42;6.47;;;4.67;;
10719;SDS011;5411;58.386;15.560;2023-11-18T07:30:11;7.57;;;4.80;;
10719;SDS011;5411;58.386;15.560;2023-11-18T07:32:40;8.00;;;4.30;;
10719;SDS011;5411;58.386;15.560;2023-11-18T07:35:08;6.50;;;4.50;;
10719;SDS011;5411;58.386;15.560;2023-11-18T07:37:40;5.90;;;4.00;;
10719;SDS011;5411;58.386;15.560;2023-11-18T07:40:08;7.23;;;4.20;;
10719;SDS011;5411;58.386;15.560;2023-11-18T07:42:41;9.03;;;4.93;;
10719;SDS011;5411;58.386;15.560;2023-11-18T07:45:12;5.30;;;4.20;;
10719;SDS011;5411;58.386;15.560;2023-11-18T07:47:44;6.10;;;4.33;;
10719;SDS011;5411;58.386;15.560;2023-11-18T07:50:16;5.77;;;3.93;;
10719;SDS011;5411;58.386;15.560;2023-11-18T07:52:48;6.73;;;4.23;;
10719;SDS011;5411;58.386;15.560;2023-11-18T07:55:17;6.30;;;4.00;;
10719;SDS011;5411;58.386;15.560;2023-11-18T07:57:46;6.70;;;4.73;;
10719;SDS011;5411;58.386;15.560;2023-11-18T08:00:14;6.77;;;4.63;;
10719;SDS011;5411;58.386;15.560;2023-11-18T08:02:43;6.13;;;4.50;;
10719;SDS011;5411;58.386;15.560;2023-11-18T08:05:12;5.37;;;4.50;;
10719;SDS011;5411;58.386;15.560;2023-11-18T08:07:41;4.80;;;3.90;;
10719;SDS011;5411;58.386;15.560;2023-11-18T08:10:11;5.40;;;3.60;;
10719;SDS011;5411;58.386;15.560;2023-11-18T08:12:46;4.57;;;3.70;;
10719;SDS011;5411;58.386;15.560;2023-11-18T08:15:14;5.40;;;4.27;;
10719;SDS011;5411;58.386;15.560;2023-11-18T08:17:43;5.47;;;4.23;;
10719;SDS011;5411;58.386;15.560;2023-11-18T08:20:11;6.20;;;3.87;;
10719;SDS011;5411;58.386;15.560;2023-11-18T08:22:41;5.13;;;3.90;;
10719;SDS011;5411;58.386;15.560;2023-11-18T08:25:15;4.40;;;3.83;;
10719;SDS011;5411;58.386;15.560;2023-11-18T08:27:45;5.53;;;4.20;;
10719;SDS011;5411;58.386;15.560;2023-11-18T08:30:14;7.57;;;4.27;;
10719;SDS011;5411;58.386;15.560;2023-11-18T08:32:45;5.30;;;3.77;;
10719;SDS011;5411;58.386;15.560;2023-11-18T08:35:16;7.73;;;4.83;;
10719;SDS011;5411;58.386;15.560;2023-11-18T08:37:45;4.83;;;3.90;;
10719;SDS011;5411;58.386;15.560;2023-11-18T08:40:16;6.03;;;3.87;;
10719;SDS011;5411;58.386;15.560;2023-11-18T08:42:49;6.10;;;4.00;;
10719;SDS011;5411;58.386;15.560;2023-11-18T08:45:24;5.50;;;4.30;;
10719;SDS011;5411;58.386;15.560;2023-11-18T08:48:00;5.80;;;3.87;;
10719;SDS011;5411;58.386;15.560;2023-11-18T08:50:34;8.13;;;4.33;;
10719;SDS011;5411;58.386;15.560;2023-11-18T08:53:03;6.90;;;4.00;;
10719;SDS011;5411;58.386;15.560;2023-11-18T08:55:34;5.27;;;3.97;;
10719;SDS011;5411;58.386;15.560;2023-11-18T08:58:18;5.57;;;3.67;;
10719;SDS011;5411;58.386;15.560;2023-11-18T09:00:48;5.23;;;3.83;;
10719;SDS011;5411;58.386;15.560;2023-11-18T09:03:22;5.60;;;4.20;;
10719;SDS011;5411;58.386;15.560;2023-11-18T09:06:03;5.47;;;3.80;;
10719;SDS011;5411;58.386;15.560;2023-11-18T09:08:45;4.70;;;4.03;;
10719;SDS011;5411;58.386;15.560;2023-11-18T09:11:21;5.97;;;4.40;;
10719;SDS011;5411;58.386;15.560;2023-11-18T09:13:54;5.63;;;4.07;;
10719;SDS011;5411;58.386;15.560;2023-11-18T09:16:28;5.77;;;4.00;;
10719;SDS011;5411;58.386;15.560;2023-11-18T09:19:05;5.30;;;4.20;;
10719;SDS011;5411;58.386;15.560;2023-11-18T09:21:33;5.00;;;3.37;;
10719;SDS011;5411;58.386;15.560;2023-11-18T09:24:03;5.07;;;3.87;;
10719;SDS011;5411;58.386;15.560;2023-11-18T09:26:36;4.43;;;3.83;;
10719;SDS011;5411;58.386;15.560;2023-11-18T09:29:04;7.40;;;4.27;;
10719;SDS011;5411;58.386;15.560;2023-11-18T09:31:35;6.55;;;4.53;;
10719;SDS011;5411;58.386;15.560;2023-11-18T09:34:04;5.07;;;4.03;;
10719;SDS011;5411;58.386;15.560;2023-11-18T09:36:33;5.80;;;4.27;;
10719;SDS011;5411;58.386;15.560;2023-11-18T09:39:02;5.90;;;4.50;;
10719;SDS011;5411;58.386;15.560;2023-11-18T09:41:31;4.97;;;3.70;;
10719;SDS011;5411;58.386;15.560;2023-11-18T09:44:05;6.23;;;4.40;;
10719;SDS011;5411;58.386;15.560;2023-11-18T09:46:36;5.83;;;4.07;;
10719;SDS011;5411;58.386;15.560;2023-11-18T09:49:12;6.00;;;4.83;;
10719;SDS011;5411;58.386;15.560;2023-11-18T09:51:53;4.97;;;3.43;;
10719;SDS011;5411;58.386;15.560;2023-11-18T09:54:27;4.93;;;3.70;;
10719;SDS011;5411;58.386;15.560;2023-11-18T09:57:04;4.20;;;3.80;;
10719;SDS011;5411;58.386;15.560;2023-11-18T09:59:42;4.50;;;3.53;;
10719;SDS011;5411;58.386;15.560;2023-11-18T10:02:14;5.77;;;3.50;;
10719;SDS011;5411;58.386;15.560;2023-11-18T10:04:48;4.67;;;3.80;;
10719;SDS011;5411;58.386;15.560;2023-11-18T10:07:25;4.60;;;3.43;;
10719;SDS011;5411;58.386;15.560;2023-11-18T10:09:54;4.67;;;3.47;;
10719;SDS011;5411;58.386;15.560;2023-11-18T10:12:24;5.67;;;3.90;;
10719;SDS011;5411;58.386;15.560;2023-11-18T10:15:00;4.83;;;3.70;;
10719;SDS011;5411;58.386;15.560;2023-11-18T10:17:38;5.23;;;3.70;;
10719;SDS011;5411;58.386;15.560;2023-11-18T10:20:21;3.77;;;3.20;;
10719;SDS011;5411;58.386;15.560;2023-11-18T10:23:05;4.23;;;3.63;;
10719;SDS011;5411;58.386;15.560;2023-11-18T10:25:41;4.83;;;3.43;;
10719;SDS011;5411;58.386;15.560;2023-11-18T10:28:26;5.23;;;3.90;;
10719;SDS011;5411;58.386;15.560;2023-11-18T10:30:58;5.00;;;3.60;;
10719;SDS011;5411;58.386;15.560;2023-11-18T10:33:31;5.40;;;3.93;;
10719;SDS011;5411;58.386;15.560;2023-11-18T10:36:03;4.47;;;3.63;;
10719;SDS011;5411;58.386;15.560;2023-11-18T10:38:42;4.43;;;3.50;;
10719;SDS011;5411;58.386;15.560;2023-11-18T10:41:18;4.03;;;3.63;;
10719;SDS011;5411;58.386;15.560;2023-11-18T10:43:47;4.70;;;3.90;;
10719;SDS011;5411;58.386;15.560;2023-11-18T10:46:17;4.33;;;3.37;;
10719;SDS011;5411;58.386;15.560;2023-11-18T10:48:47;4.83;;;3.37;;
10719;SDS011;5411;58.386;15.560;2023-11-18T10:51:17;4.20;;;3.17;;
10719;SDS011;5411;58.386;15.560;2023-11-18T10:53:52;3.93;;;3.33;;
10719;SDS011;5411;58.386;15.560;2023-11-18T10:56:25;7.47;;;3.43;;
10719;SDS011;5411;58.386;15.560;2023-11-18T10:58:56;5.47;;;3.60;;
10719;SDS011;5411;58.386;15.560;2023-11-18T11:01:30;4.20;;;3.50;;
10719;SDS011;5411;58.386;15.560;2023-11-18T11:04:00;3.63;;;3.23;;
10719;SDS011;5411;58.386;15.560;2023-11-18T11:06:32;4.10;;;3.20;;
10719;SDS011;5411;58.386;15.560;2023-11-18T11:09:03;3.83;;;3.30;;
10719;SDS011;5411;58.386;15.560;2023-11-18T11:11:39;3.40;;;3.10;;
10719;SDS011;5411;58.386;15.560;2023-11-18T11:14:14;3.33;;;2.83;;
10719;SDS011;5411;58.386;15.560;2023-11-18T11:16:47;3.57;;;2.93;;
10719;SDS011;5411;58.386;15.560;2023-11-18T11:19:24;2.83;;;2.63;;
10719;SDS011;5411;58.386;15.560;2023-11-18T11:22:00;3.40;;;3.03;;
10719;SDS011;5411;58.386;15.560;2023-11-18T11:24:37;4.40;;;3.10;;
10719;SDS011;5411;58.386;15.560;2023-11-18T11:27:17;4.33;;;2.90;;
10719;SDS011;5411;58.386;15.560;2023-11-18T11:30:07;3.77;;;3.33;;
10719;SDS011;5411;58.386;15.560;2023-11-18T11:32:49;3.47;;;2.77;;
10719;SDS011;5411;58.386;15.560;2023-11-18T11:35:22;3.73;;;3.00;;
10719;SDS011;5411;58.386;15.560;2023-11-18T11:37:52;3.10;;;2.80;;
10719;SDS011;5411;58.386;15.560;2023-11-18T11:40:25;3.47;;;2.83;;
10719;SDS011;5411;58.386;15.560;2023-11-18T11:43:00;5.73;;;3.00;;
10719;SDS011;5411;58.386;15.560;2023-11-18T11:45:31;3.40;;;2.60;;
10719;SDS011;5411;58.386;15.560;2023-11-18T11:48:04;3.27;;;2.97;;
10719;SDS011;5411;58.386;15.560;2023-11-18T11:50:46;4.50;;;3.20;;
10719;SDS011;5411;58.386;15.560;2023-11-18T11:53:23;5.77;;;3.57;;
10719;SDS011;5411;58.386;15.560;2023-11-18T11:55:57;4.43;;;3.20;;
10719;SDS011;5411;58.386;15.560;2023-11-18T11:58:33;3.50;;;3.20;;
10719;SDS011;5411;58.386;15.560;2023-11-18T12:01:14;4.40;;;3.53;;
10719;SDS011;5411;58.386;15.560;2023-11-18T12:03:51;4.10;;;3.27;;
10719;SDS011;5411;58.386;15.560;2023-11-18T12:06:26;4.97;;;2.97;;
10719;SDS011;5411;58.386;15.560;2023-11-18T12:08:56;3.53;;;3.20;;
10719;SDS011;5411;58.386;15.560;2023-11-18T12:11:24;3.77;;;2.80;;
10719;SDS011;5411;58.386;15.560;2023-11-18T12:14:02;4.40;;;3.13;;
10719;SDS011;5411;58.386;15.560;2023-11-18T12:17:00;4.13;;;2.33;;
10719;SDS011;5411;58.386;15.560;2023-11-18T12:19:39;2.43;;;2.00;;
10719;SDS011;5411;58.386;15.560;2023-11-18T12:22:15;2.90;;;2.27;;
10719;SDS011;5411;58.386;15.560;2023-11-18T12:28:06;2.30;;;2.10;;
10719;SDS011;5411;58.386;15.560;2023-11-18T12:30:42;1.77;;;1.60;;
10719;SDS011;5411;58.386;15.560;2023-11-18T12:33:23;1.87;;;1.73;;
10719;SDS011;5411;58.386;15.560;2023-11-18T12:36:07;2.10;;;1.63;;
10719;SDS011;5411;58.386;15.560;2023-11-18T12:42:07;2.27;;;1.70;;
10719;SDS011;5411;58.386;15.560;2023-11-18T12:44:49;2.53;;;1.43;;
10719;SDS011;5411;58.386;15.560;2023-11-18T12:47:41;1.43;;;1.33;;
10719;SDS011;5411;58.386;15.560;2023-11-18T12:50:12;2.00;;;1.80;;
10719;SDS011;5411;58.386;15.560;2023-11-18T12:52:54;1.77;;;1.67;;
10719;SDS011;5411;58.386;15.560;2023-11-18T12:55:24;2.03;;;1.43;;
10719;SDS011;5411;58.386;15.560;2023-11-18T12:57:53;1.43;;;1.33;;
10719;SDS011;5411;58.386;15.560;2023-11-18T13:00:21;2.50;;;1.80;;
10719;SDS011;5411;58.386;15.560;2023-11-18T13:02:54;1.47;;;1.30;;
10719;SDS011;5411;58.386;15.560;2023-11-18T13:05:27;1.73;;;1.63;;
10719;SDS011;5411;58.386;15.560;2023-11-18T13:08:00;2.20;;;1.80;;
10719;SDS011;5411;58.386;15.560;2023-11-18T13:10:28;1.63;;;1.50;;
10719;SDS011;5411;58.386;15.560;2023-11-18T13:12:57;1.43;;;1.33;;
10719;SDS011;5411;58.386;15.560;2023-11-18T13:15:27;1.60;;;1.50;;
10719;SDS011;5411;58.386;15.560;2023-11-18T13:17:59;1.33;;;1.20;;
10719;SDS011;5411;58.386;15.560;2023-11-18T13:20:28;1.80;;;1.70;;
10719;SDS011;5411;58.386;15.560;2023-11-18T13:22:59;1.40;;;1.30;;
10719;SDS011;5411;58.386;15.560;2023-11-18T13:25:35;1.70;;;1.60;;
10719;SDS011;5411;58.386;15.560;2023-11-18T13:28:07;1.43;;;1.33;;
10719;SDS011;5411;58.386;15.560;2023-11-18T13:30:37;1.77;;;1.43;;
10719;SDS011;5411;58.386;15.560;2023-11-18T13:33:06;1.80;;;1.47;;
10719;SDS011;5411;58.386;15.560;2023-11-18T13:35:38;1.97;;;1.40;;
10719;SDS011;5411;58.386;15.560;2023-11-18T13:38:13;2.27;;;1.70;;
10719;SDS011;5411;58.386;15.560;2023-11-18T13:40:48;1.37;;;1.27;;
10719;SDS011;5411;58.386;15.560;2023-11-18T13:43:16;1.57;;;1.47;;
10719;SDS011;5411;58.386;15.560;2023-11-18T13:45:50;1.90;;;1.43;;
10719;SDS011;5411;58.386;15.560;2023-11-18T13:48:21;1.50;;;1.40;;
10719;SDS011;5411;58.386;15.560;2023-11-18T13:50:50;1.60;;;1.50;;
10719;SDS011;5411;58.386;15.560;2023-11-18T13:53:21;1.70;;;1.60;;
10719;SDS011;5411;58.386;15.560;2023-11-18T13:55:49;1.67;;;1.57;;
10719;SDS011;5411;58.386;15.560;2023-11-18T13:58:18;1.27;;;1.17;;
10719;SDS011;5411;58.386;15.560;2023-11-18T14:00:47;2.00;;;1.27;;
10719;SDS011;5411;58.386;15.560;2023-11-18T14:03:18;1.70;;;1.60;;
10719;SDS011;5411;58.386;15.560;2023-11-18T14:05:50;1.17;;;0.90;;
10719;SDS011;5411;58.386;15.560;2023-11-18T14:08:20;1.30;;;1.20;;
10719;SDS011;5411;58.386;15.560;2023-11-18T14:10:50;1.10;;;1.10;;
10719;SDS011;5411;58.386;15.560;2023-11-18T14:13:29;1.60;;;1.37;;
10719;SDS011;5411;58.386;15.560;2023-11-18T14:15:57;1.60;;;1.40;;
10719;SDS011;5411;58.386;15.560;2023-11-18T14:18:26;1.37;;;1.27;;
10719;SDS011;5411;58.386;15.560;2023-11-18T14:20:55;1.40;;;1.30;;
10719;SDS011;5411;58.386;15.560;2023-11-18T14:23:25;1.30;;;1.20;;
10719;SDS011;5411;58.386;15.560;2023-11-18T14:25:56;1.27;;;1.20;;
10719;SDS011;5411;58.386;15.560;2023-11-18T14:28:24;1.30;;;1.30;;
10719;SDS011;5411;58.386;15.560;2023-11-18T14:30:55;2.13;;;1.50;;
10719;SDS011;5411;58.386;15.560;2023-11-18T14:33:24;1.80;;;1.70;;
10719;SDS011;5411;58.386;15.560;2023-11-18T14:35:52;1.27;;;1.17;;
10719;SDS011;5411;58.386;15.560;2023-11-18T14:38:22;2.03;;;1.57;;
10719;SDS011;5411;58.386;15.560;2023-11-18T14:40:52;1.20;;;1.10;;
10719;SDS011;5411;58.386;15.560;2023-11-18T14:43:21;1.43;;;1.33;;
10719;SDS011;5411;58.386;15.560;2023-11-18T14:45:50;1.70;;;1.23;;
10719;SDS011;5411;58.386;15.560;2023-11-18T14:48:22;1.73;;;1.63;;
10719;SDS011;5411;58.386;15.560;2023-11-18T14:50:51;1.20;;;1.10;;
10719;SDS011;5411;58.386;15.560;2023-11-18T14:53:21;1.40;;;1.30;;
10719;SDS011;5411;58.386;15.560;2023-11-18T14:55:58;1.63;;;1.50;;
10719;SDS011;5411;58.386;15.560;2023-11-18T14:58:27;1.80;;;1.70;;
10719;SDS011;5411;58.386;15.560;2023-11-18T15:00:56;1.50;;;1.40;;
10719;SDS011;5411;58.386;15.560;2023-11-18T15:03:26;1.77;;;1.67;;
10719;SDS011;5411;58.386;15.560;2023-11-18T15:05:54;1.47;;;1.37;;
10719;SDS011;5411;58.386;15.560;2023-11-18T15:08:23;1.67;;;1.57;;
10719;SDS011;5411;58.386;15.560;2023-11-18T15:10:51;1.27;;;1.17;;
10719;SDS011;5411;58.386;15.560;2023-11-18T15:13:24;1.90;;;1.80;;
10719;SDS011;5411;58.386;15.560;2023-11-18T15:15:53;1.87;;;1.70;;
10719;SDS011;5411;58.386;15.560;2023-11-18T15:18:22;2.77;;;1.80;;
10719;SDS011;5411;58.386;15.560;2023-11-18T15:20:51;2.00;;;1.60;;
10719;SDS011;5411;58.386;15.560;2023-11-18T15:23:19;2.73;;;1.60;;